Terminal Aerodrome Forecast
Issued by NWS

Home | Current Version | Previous Version | Text Only | Print | Product List | Glossary On
Versions: 1 2 3 4 5 6 7 8 9 10 11 12 13
000
FTUS45 KABQ 301724
TAFGUP
TAF
KGUP 301724Z 3018/3118 23016G26KT P6SM BKN200
     FM302100 24027G37KT P6SM FEW150 BKN200
     FM310200 23012G20KT P6SM FEW150 BKN200
     FM310600 20011KT P6SM SCT080
     FM311500 22016G25KT P6SM SCT045 SCT080=

USA.gov is the U.S. government's official web portal to all federal, state and local government web resources and services.